Time;durP1;ratioP1;P1;durP2;ratioP2;P2;SDS_P1;SDS_P2;PMS_P1;PMS_P2;Temp;Humidity;BMP_temperature;BMP_pressure;BME280_temperature;BME280_humidity;BME280_pressure;Samples;Min_cycle;Max_cycle;Signal;HPM_P1;HPM_P2
2021/11/08 00:01:57;;;;;;;;;;;;;;;11.90;65.41;100608.47;4882377;28;118484;-67
2021/11/08 00:04:23;;;;;;;;;;;;;;;11.89;65.42;100614.16;4884156;28;98498;-59
2021/11/08 00:06:52;;;;;;;;;;;;;;;11.88;65.61;100613.34;4882838;28;113956;-58
2021/11/08 00:09:19;;;;;;;;;;;;;;;11.88;65.54;100615.25;4883835;28;98456;-66
2021/11/08 00:11:45;;;;;;;;;;;;;;;11.88;65.28;100620.66;4883345;28;98097;-66
2021/11/08 00:14:15;;;;;;;;;;;;;;;11.87;65.23;100616.31;4883985;28;98739;-65
2021/11/08 00:21:59;;;;;;;;;;;;;;;11.88;65.29;100626.06;4876084;28;97719;-58
2021/11/08 00:24:27;;;;;;;;;;;;;;;11.87;65.46;100616.31;4864377;28;97793;-59
2021/11/08 00:26:53;;;;;;;;;;;;;;;11.86;65.14;100629.00;4866399;28;98287;-66
2021/11/08 00:29:19;;;;;;;;;;;;;;;11.86;65.41;100628.19;4866203;28;98201;-67
2021/11/08 00:31:45;;;;;;;;;;;;;;;11.85;65.49;100634.69;4883157;28;118580;-58
2021/11/08 00:34:11;;;;;;;;;;;;;;;11.84;65.50;100638.47;4881461;28;98985;-66
2021/11/08 00:36:37;;;;;;;;;;;;;;;11.85;65.30;100640.09;4882944;28;120251;-58
2021/11/08 00:39:04;;;;;;;;;;;;;;;11.84;65.37;100636.59;4882338;28;123153;-58
2021/11/08 00:41:30;;;;;;;;;;;;;;;11.83;65.51;100640.38;4884612;28;98051;-59
2021/11/08 00:43:56;;;;;;;;;;;;;;;11.82;65.52;100636.00;4882957;28;98526;-58
2021/11/08 00:46:22;;;;;;;;;;;;;;;11.82;65.41;100637.91;4882311;28;125808;-58
2021/11/08 00:48:47;;;;;;;;;;;;;;;11.80;65.68;100652.50;4881287;28;127604;-58
2021/11/08 00:51:15;;;;;;;;;;;;;;;11.81;65.43;100658.69;4873206;28;118138;-66
2021/11/08 00:53:41;;;;;;;;;;;;;;;11.79;65.70;100655.47;4884121;28;98583;-59
2021/11/08 00:56:12;;;;;;;;;;;;;;;11.79;65.36;100658.97;4884978;28;98810;-58
2021/11/08 00:58:40;;;;;;;;;;;;;;;11.79;65.46;100663.56;4867648;28;98148;-66
2021/11/08 01:01:08;;;;;;;;;;;;;;;11.79;65.79;100666.28;4851141;28;98357;-58
2021/11/08 01:03:38;;;;;;;;;;;;;;;11.76;65.60;100659.50;4867382;28;98364;-66
2021/11/08 01:06:05;;;;;;;;;;;;;;;11.78;65.33;100676.25;4868444;28;98686;-59
2021/11/08 01:08:31;;;;;;;;;;;;;;;11.77;65.33;100671.13;4866736;28;98521;-59
2021/11/08 01:10:57;;;;;;;;;;;;;;;11.76;65.60;100678.41;4868252;28;98008;-66
2021/11/08 01:13:24;;;;;;;;;;;;;;;11.76;65.50;100669.50;4884916;28;120911;-59
2021/11/08 01:15:50;;;;;;;;;;;;;;;11.75;65.72;100675.97;4886609;28;99347;-58
2021/11/08 01:18:18;;;;;;;;;;;;;;;11.74;65.50;100669.75;4885660;28;98149;-66
2021/11/08 01:20:46;;;;;;;;;;;;;;;11.72;65.50;100665.72;4887270;28;97756;-67
2021/11/08 01:23:15;;;;;;;;;;;;;;;11.73;65.57;100676.25;4886344;28;98786;-67
2021/11/08 01:25:41;;;;;;;;;;;;;;;11.72;65.58;100674.63;4886930;28;98356;-66
2021/11/08 01:28:09;;;;;;;;;;;;;;;11.72;65.61;100676.53;4868839;28;98074;-63
2021/11/08 01:30:35;;;;;;;;;;;;;;;11.71;65.55;100683.81;4867753;28;98179;-58
2021/11/08 01:33:03;;;;;;;;;;;;;;;11.71;65.57;100683.81;4866107;28;125743;-66
2021/11/08 01:35:40;;;;;;;;;;;;;;;11.71;65.48;100683.81;4867576;28;98294;-67
2021/11/08 01:40:33;;;;;;;;;;;;;;;11.71;65.61;100691.09;4869006;28;98191;-58
2021/11/08 01:42:59;;;;;;;;;;;;;;;11.71;65.73;100683.81;4852664;28;98707;-58
2021/11/08 01:45:25;;;;;;;;;;;;;;;11.71;65.22;100677.59;4883374;28;128237;-67
2021/11/08 01:47:51;;;;;;;;;;;;;;;11.72;65.73;100679.22;4884947;28;123032;-66
2021/11/08 01:50:17;;;;;;;;;;;;;;;11.72;65.60;100673.84;4885205;28;97749;-58
2021/11/08 01:52:43;;;;;;;;;;;;;;;11.72;65.28;100677.34;4889920;28;129609;-58
2021/11/08 01:55:08;;;;;;;;;;;;;;;11.73;65.64;100678.16;4886627;28;128147;-59
2021/11/08 01:57:34;;;;;;;;;;;;;;;11.73;65.70;100678.16;4890367;28;127491;-67
2021/11/08 02:00:01;;;;;;;;;;;;;;;11.75;65.60;100675.97;4868788;28;98125;-67
2021/11/08 02:02:26;;;;;;;;;;;;;;;11.76;65.71;100674.91;4867073;28;97997;-60
2021/11/08 02:04:52;;;;;;;;;;;;;;;11.76;65.66;100674.91;4884979;28;129185;-58
2021/11/08 02:07:18;;;;;;;;;;;;;;;11.76;65.55;100667.63;4885265;28;127733;-58
2021/11/08 02:09:44;;;;;;;;;;;;;;;11.78;65.55;100680.84;4870495;28;119219;-58
2021/11/08 02:12:11;;;;;;;;;;;;;;;11.79;65.53;100679.78;4866142;28;112250;-59
2021/11/08 02:14:40;;;;;;;;;;;;;;;11.76;65.42;100678.41;4848899;28;98421;-67
2021/11/08 02:17:06;;;;;;;;;;;;;;;11.80;65.38;100684.09;4847796;28;99302;-66
2021/11/08 02:19:32;;;;;;;;;;;;;;;11.82;65.49;100690.03;4848522;28;109153;-67
2021/11/08 02:22:01;;;;;;;;;;;;;;;11.82;65.25;100690.03;4865762;28;97833;-61
2021/11/08 02:24:28;;;;;;;;;;;;;;;11.83;65.57;100694.41;4866019;28;99036;-66
2021/11/08 02:26:54;;;;;;;;;;;;;;;11.84;65.41;100701.41;4866266;28;98281;-58
2021/11/08 02:29:20;;;;;;;;;;;;;;;11.85;65.65;100694.13;4866479;28;98003;-59
2021/11/08 02:31:46;;;;;;;;;;;;;;;11.87;65.46;100705.44;4864726;28;106589;-66
2021/11/08 02:34:12;;;;;;;;;;;;;;;11.87;65.53;100700.88;4865373;28;123047;-66
2021/11/08 02:36:41;;;;;;;;;;;;;;;11.88;65.46;100696.28;4847405;28;125986;-58
2021/11/08 02:39:37;;;;;;;;;;;;;;;11.89;65.43;100682.50;4866666;28;98065;-67
2021/11/08 02:41:58;;;;;;;;;;;;;;;11.89;65.59;100689.78;4864944;28;98410;-67
2021/11/08 02:44:24;;;;;;;;;;;;;;;11.91;65.33;100695.75;4865286;28;98759;-58
2021/11/08 02:46:53;;;;;;;;;;;;;;;11.91;65.48;100698.44;4883967;28;123356;-58
2021/11/08 02:49:23;;;;;;;;;;;;;;;11.91;65.40;100696.56;4885466;28;97778;-58
2021/11/08 02:51:59;;;;;;;;;;;;;;;11.91;65.25;100699.25;4885210;28;98297;-67
2021/11/08 02:54:32;;;;;;;;;;;;;;;11.93;65.22;100709.78;4885005;28;98342;-66
2021/11/08 02:56:58;;;;;;;;;;;;;;;11.94;65.37;100703.28;4884458;28;97979;-66
2021/11/08 02:59:26;;;;;;;;;;;;;;;11.95;65.42;100715.72;4885360;28;97744;-58
2021/11/08 03:01:53;;;;;;;;;;;;;;;11.95;65.28;100711.13;4884466;28;98429;-67
2021/11/08 03:04:25;;;;;;;;;;;;;;;11.96;65.26;100715.44;4884611;28;98348;-66
2021/11/08 03:06:50;;;;;;;;;;;;;;;11.97;65.37;100713.56;4884113;28;97983;-59
2021/11/08 03:09:20;;;;;;;;;;;;;;;11.97;64.97;100700.84;4883739;28;115429;-58
2021/11/08 03:11:46;;;;;;;;;;;;;;;11.98;65.18;100709.78;4884120;28;98807;-58
2021/11/08 03:14:21;;;;;;;;;;;;;;;11.99;65.31;100714.13;4885802;28;98522;-58
2021/11/08 03:16:58;;;;;;;;;;;;;;;12.00;65.19;100718.44;4884796;28;97899;-58
2021/11/08 03:19:32;;;;;;;;;;;;;;;12.01;65.08;100718.16;4884991;28;97733;-58
2021/11/08 03:21:59;;;;;;;;;;;;;;;12.01;65.26;100718.16;4883843;28;98587;-58
2021/11/08 03:27:35;;;;;;;;;;;;;;;12.03;65.26;100720.59;4881138;28;98009;-58
2021/11/08 03:30:01;;;;;;;;;;;;;;;12.03;65.25;100721.41;4885115;28;97859;-59
2021/11/08 03:32:27;;;;;;;;;;;;;;;12.04;65.20;100728.41;4882640;28;128308;-66
2021/11/08 03:35:02;;;;;;;;;;;;;;;12.03;65.32;100726.81;4884325;28;98473;-58
2021/11/08 03:37:29;;;;;;;;;;;;;;;12.05;65.40;100734.63;4866462;28;98032;-58
2021/11/08 03:39:56;;;;;;;;;;;;;;;12.07;65.36;100728.97;4883881;28;98332;-66
2021/11/08 03:42:22;;;;;;;;;;;;;;;12.05;65.36;100731.94;4883500;28;98893;-59
2021/11/08 03:44:48;;;;;;;;;;;;;;;12.06;65.33;100740.84;4881732;28;127224;-66
2021/11/08 03:47:14;;;;;;;;;;;;;;;12.06;65.34;100733.53;4864733;28;115156;-58
2021/11/08 03:49:40;;;;;;;;;;;;;;;12.07;65.31;100747.88;4865189;28;98293;-59
2021/11/08 03:52:06;;;;;;;;;;;;;;;12.07;65.32;100742.47;4863735;28;112737;-58
2021/11/08 03:54:33;;;;;;;;;;;;;;;12.07;65.25;100748.69;4865432;28;107668;-59
2021/11/08 03:56:59;;;;;;;;;;;;;;;12.08;65.18;100747.59;4864218;28;108339;-58
2021/11/08 03:59:25;;;;;;;;;;;;;;;12.08;65.17;100755.72;4864272;28;97977;-58
2021/11/08 04:01:51;;;;;;;;;;;;;;;12.10;65.30;100761.63;4863371;28;126438;-67
2021/11/08 04:04:17;;;;;;;;;;;;;;;12.10;65.29;100761.63;4846177;28;121903;-59
2021/11/08 04:06:43;;;;;;;;;;;;;;;12.08;65.22;100761.13;4863877;28;113379;-66
2021/11/08 04:09:11;;;;;;;;;;;;;;;12.09;65.30;100765.44;4864839;28;98069;-61
2021/11/08 04:11:38;;;;;;;;;;;;;;;12.10;65.16;100763.53;4863342;28;98361;-58
2021/11/08 04:14:04;;;;;;;;;;;;;;;12.11;65.22;100765.19;4863530;28;98759;-67
2021/11/08 04:16:33;;;;;;;;;;;;;;;12.11;65.28;100771.38;4864403;28;97948;-58
2021/11/08 04:18:59;;;;;;;;;;;;;;;12.11;65.26;100771.38;4864475;28;98048;-57
2021/11/08 04:21:26;;;;;;;;;;;;;;;12.10;65.25;100774.34;4864199;28;99206;-59
2021/11/08 04:23:52;;;;;;;;;;;;;;;12.10;65.25;100779.75;4863886;28;98146;-66
2021/11/08 04:26:23;;;;;;;;;;;;;;;12.11;65.27;100776.00;4863522;28;127505;-58
2021/11/08 04:29:01;;;;;;;;;;;;;;;12.10;65.18;100791.38;4854490;28;98511;-66
2021/11/08 04:31:28;;;;;;;;;;;;;;;12.10;65.24;100790.56;4883098;28;98727;-66
2021/11/08 04:34:00;;;;;;;;;;;;;;;12.10;65.27;100785.97;4883563;28;98332;-66
2021/11/08 04:36:43;;;;;;;;;;;;;;;12.11;65.27;100794.91;4883159;28;98258;-66
2021/11/08 04:39:25;;;;;;;;;;;;;;;12.10;64.96;100793.25;4865989;28;97915;-58
2021/11/08 04:42:03;;;;;;;;;;;;;;;12.11;65.08;100798.41;4867679;28;98630;-59
2021/11/08 04:55:24;;;;;;;;;;;;;;;12.10;64.94;100796.75;4861358;28;97971;-66
2021/11/08 05:22:19;;;;;;;;;;;;;;;12.11;65.36;100830.03;4846680;28;97991;-66
2021/11/08 05:30:08;;;;;;;;;;;;;;;12.09;65.38;100838.38;4860762;28;98780;-59
2021/11/08 05:32:36;;;;;;;;;;;;;;;12.08;65.33;100841.38;4864337;28;97950;-59
2021/11/08 05:35:02;;;;;;;;;;;;;;;12.09;65.21;100842.97;4863961;28;111508;-59
2021/11/08 05:37:29;;;;;;;;;;;;;;;12.08;65.42;100844.88;4866189;28;98576;-58
2021/11/08 05:39:58;;;;;;;;;;;;;;;12.07;65.18;100843.25;4867648;28;97900;-67
2021/11/08 05:42:24;;;;;;;;;;;;;;;12.08;65.46;100852.19;4866776;28;97870;-66
2021/11/08 05:44:51;;;;;;;;;;;;;;;12.07;65.40;100850.56;4870534;28;98878;-67
2021/11/08 05:47:17;;;;;;;;;;;;;;;12.07;65.33;100848.66;4884496;28;99041;-67
2021/11/08 05:49:44;;;;;;;;;;;;;;;12.07;65.41;100850.56;4896665;28;98066;-67
2021/11/08 05:52:11;;;;;;;;;;;;;;;12.06;65.47;100849.72;4902089;28;97813;-66
2021/11/08 05:54:38;;;;;;;;;;;;;;;12.06;65.51;100860.53;4883687;28;98324;-66
2021/11/08 05:57:36;;;;;;;;;;;;;;;12.07;65.58;100861.38;4902817;28;98117;-67
2021/11/08 06:49:29;;;;;;;;;;;;;;;12.15;65.68;100941.91;4852464;28;98194;-66
2021/11/08 06:51:56;;;;;;;;;;;;;;;12.14;65.64;100941.06;4865603;28;99076;-67
2021/11/08 06:54:23;;;;;;;;;;;;;;;12.14;65.52;100949.19;4877330;28;98116;-67
2021/11/08 06:56:55;;;;;;;;;;;;;;;12.14;65.67;100946.47;4881247;28;97953;-67
2021/11/08 06:59:24;;;;;;;;;;;;;;;12.14;65.66;100957.28;4882343;28;98505;-66
2021/11/08 07:01:51;;;;;;;;;;;;;;;12.16;65.79;100954.34;4885274;28;98117;-67
2021/11/08 07:04:17;;;;;;;;;;;;;;;12.18;65.72;100962.97;4882849;28;122212;-67
2021/11/08 07:06:43;;;;;;;;;;;;;;;12.21;65.63;100965.97;4888957;28;97842;-66
2021/11/08 07:09:09;;;;;;;;;;;;;;;12.24;65.65;100972.75;4885798;28;98601;-67
2021/11/08 07:11:35;;;;;;;;;;;;;;;12.28;65.53;100968.41;4884117;28;114704;-67
2021/11/08 07:14:01;;;;;;;;;;;;;;;12.30;65.67;100977.09;4884473;28;98080;-66
2021/11/08 07:16:27;;;;;;;;;;;;;;;12.33;65.41;100979.25;4866774;28;97933;-67
2021/11/08 07:18:53;;;;;;;;;;;;;;;12.38;65.56;100983.84;4873444;28;122543;-66
2021/11/08 07:21:19;;;;;;;;;;;;;;;12.41;65.42;100986.03;4885033;28;98094;-67
2021/11/08 07:23:45;;;;;;;;;;;;;;;12.43;65.58;100992.00;4879592;28;97994;-66
2021/11/08 07:26:11;;;;;;;;;;;;;;;12.45;65.60;100993.31;4831176;28;117304;-66
2021/11/08 07:28:38;;;;;;;;;;;;;;;12.48;65.54;101000.91;4852005;28;98624;-66
2021/11/08 07:31:04;;;;;;;;;;;;;;;12.52;65.53;101001.19;4884865;28;97875;-67
2021/11/08 07:33:33;;;;;;;;;;;;;;;12.55;65.32;101003.38;4883994;28;98072;-66
2021/11/08 07:35:59;;;;;;;;;;;;;;;12.57;65.52;101011.19;4885428;28;97951;-67
2021/11/08 07:38:25;;;;;;;;;;;;;;;12.58;65.53;101005.53;4884688;28;99724;-67
2021/11/08 07:40:51;;;;;;;;;;;;;;;12.65;65.18;101005.25;4883699;28;128016;-67
2021/11/08 07:43:17;;;;;;;;;;;;;;;12.73;65.21;101016.41;4852210;28;98855;-67
2021/11/08 07:45:43;;;;;;;;;;;;;;;12.73;65.32;101019.09;4847999;28;114580;-66
2021/11/08 07:48:09;;;;;;;;;;;;;;;12.74;65.45;101015.31;4883599;28;103327;-67
2021/11/08 07:50:35;;;;;;;;;;;;;;;12.74;65.38;101019.91;4866717;28;100577;-66
2021/11/08 07:53:01;;;;;;;;;;;;;;;12.76;65.55;101025.84;4883245;28;98167;-67
2021/11/08 07:55:27;;;;;;;;;;;;;;;12.80;65.49;101024.22;4854550;28;98722;-67
2021/11/08 07:57:53;;;;;;;;;;;;;;;12.81;65.21;101027.75;4863923;28;127015;-66
2021/11/08 08:00:19;;;;;;;;;;;;;;;12.85;65.14;101037.78;4864240;28;98257;-66
2021/11/08 08:02:45;;;;;;;;;;;;;;;12.97;65.25;101030.22;4864403;28;126870;-67
2021/11/08 08:05:11;;;;;;;;;;;;;;;13.08;64.77;101028.31;4852085;28;118612;-66
2021/11/08 08:07:37;;;;;;;;;;;;;;;13.13;64.78;101031.03;4865747;28;127402;-67
2021/11/08 08:10:04;;;;;;;;;;;;;;;13.18;65.20;101032.94;4851119;28;98622;-67
2021/11/08 08:12:30;;;;;;;;;;;;;;;13.18;65.11;101038.34;4870312;28;105342;-66
2021/11/08 08:14:56;;;;;;;;;;;;;;;13.17;64.86;101040.25;4875819;28;117592;-67
2021/11/08 08:17:21;;;;;;;;;;;;;;;13.18;65.31;101046.47;4863719;28;129014;-67
2021/11/08 08:19:47;;;;;;;;;;;;;;;13.20;65.26;101045.13;4881941;28;127720;-67
2021/11/08 08:22:13;;;;;;;;;;;;;;;13.24;65.27;101045.41;4882073;28;126392;-67
2021/11/08 08:24:39;;;;;;;;;;;;;;;13.26;65.27;101049.47;4873347;28;108947;-67
2021/11/08 08:27:05;;;;;;;;;;;;;;;13.32;64.70;101047.56;4880331;28;129681;-67
2021/11/08 08:29:32;;;;;;;;;;;;;;;13.36;64.93;101055.94;4877217;28;129161;-67
2021/11/08 08:31:58;;;;;;;;;;;;;;;13.40;65.12;101055.16;4863735;28;98266;-67
2021/11/08 08:34:25;;;;;;;;;;;;;;;13.45;64.79;101046.22;4865292;28;97746;-66
2021/11/08 08:36:52;;;;;;;;;;;;;;;13.51;64.62;101050.53;4867602;28;98406;-66
2021/11/08 08:39:20;;;;;;;;;;;;;;;13.55;64.86;101048.88;4877048;28;98658;-66
2021/11/08 08:41:47;;;;;;;;;;;;;;;13.64;64.49;101049.19;4865185;28;98095;-66
2021/11/08 08:44:13;;;;;;;;;;;;;;;13.71;64.74;101057.81;4867541;28;97623;-66
2021/11/08 08:46:43;;;;;;;;;;;;;;;13.76;64.53;101055.09;4866738;28;99055;-65
2021/11/08 08:49:10;;;;;;;;;;;;;;;13.80;64.70;101066.22;4866987;28;115069;-66
2021/11/08 08:51:36;;;;;;;;;;;;;;;13.85;64.67;101074.31;4865378;28;121774;-66
2021/11/08 08:54:02;;;;;;;;;;;;;;;13.86;64.62;101074.03;4868174;28;117903;-66
2021/11/08 08:56:28;;;;;;;;;;;;;;;13.86;64.75;101073.22;4865714;28;106982;-66
2021/11/08 08:58:55;;;;;;;;;;;;;;;13.89;64.67;101078.09;4848154;28;127649;-64
2021/11/08 09:01:21;;;;;;;;;;;;;;;13.96;64.98;101078.63;4848160;28;98306;-66
2021/11/08 09:03:47;;;;;;;;;;;;;;;13.95;64.63;101082.41;4865728;28;109469;-66
2021/11/08 09:06:14;;;;;;;;;;;;;;;14.00;64.96;101080.53;4866019;28;128157;-67
2021/11/08 09:08:40;;;;;;;;;;;;;;;14.07;64.57;101082.94;4867336;28;98537;-66
2021/11/08 09:11:06;;;;;;;;;;;;;;;14.11;64.63;101086.72;4865478;28;118629;-67
2021/11/08 09:13:34;;;;;;;;;;;;;;;14.18;64.63;101081.00;4868143;28;117793;-66
2021/11/08 09:16:00;;;;;;;;;;;;;;;14.20;64.48;101089.69;4870100;28;98023;-66
2021/11/08 09:18:25;;;;;;;;;;;;;;;14.25;64.77;101089.66;4869798;28;122166;-66
2021/11/08 09:20:51;;;;;;;;;;;;;;;14.29;64.52;101090.72;4868758;28;127584;-66
2021/11/08 09:23:20;;;;;;;;;;;;;;;14.38;64.40;101096.38;4876417;28;109236;-67
2021/11/08 09:25:46;;;;;;;;;;;;;;;14.46;64.35;101093.94;4870173;28;98009;-67
2021/11/08 09:28:12;;;;;;;;;;;;;;;14.60;64.20;101098.75;4868866;28;128037;-67
2021/11/08 09:30:41;;;;;;;;;;;;;;;14.67;64.04;101102.78;4869471;28;98257;-67
2021/11/08 09:33:07;;;;;;;;;;;;;;;14.75;64.43;101109.53;4873848;28;98022;-66
2021/11/08 09:35:43;;;;;;;;;;;;;;;14.94;64.09;101110.53;4888071;28;118970;-67
2021/11/08 09:38:10;;;;;;;;;;;;;;;15.13;63.72;101110.69;4870786;28;98112;-67
2021/11/08 09:40:37;;;;;;;;;;;;;;;15.07;64.05;101117.22;4888988;28;98231;-67
2021/11/08 09:43:03;;;;;;;;;;;;;;;15.06;64.21;101117.50;4887272;28;100807;-66
2021/11/08 09:45:29;;;;;;;;;;;;;;;15.01;64.39;101120.25;4868799;28;113220;-66
2021/11/08 09:47:55;;;;;;;;;;;;;;;15.13;63.96;101124.25;4868182;28;128007;-66
2021/11/08 09:50:23;;;;;;;;;;;;;;;15.10;64.41;101129.44;4860479;28;98196;-66
2021/11/08 09:52:49;;;;;;;;;;;;;;;15.20;64.12;101134.78;4882887;28;113733;-67
2021/11/08 09:55:17;;;;;;;;;;;;;;;15.18;64.09;101128.84;4875362;28;99103;-66
2021/11/08 09:57:43;;;;;;;;;;;;;;;15.23;64.02;101131.50;4886928;28;120965;-66
2021/11/08 10:00:22;;;;;;;;;;;;;;;15.23;64.47;101126.88;4885071;28;126128;-67
2021/11/08 10:02:56;;;;;;;;;;;;;;;15.30;64.29;101129.28;4879740;28;97823;-66
2021/11/08 10:05:24;;;;;;;;;;;;;;;15.30;64.18;101142.88;4868966;28;103544;-67
2021/11/08 10:07:51;;;;;;;;;;;;;;;15.23;64.66;101139.66;4869049;28;99020;-66
2021/11/08 10:10:16;;;;;;;;;;;;;;;15.25;64.23;101131.22;4852365;28;98251;-67
2021/11/08 10:12:43;;;;;;;;;;;;;;;15.29;64.51;101138.53;4851096;28;117303;-66
2021/11/08 10:15:09;;;;;;;;;;;;;;;15.30;64.28;101140.16;4869118;28;98627;-66
2021/11/08 10:17:35;;;;;;;;;;;;;;;15.42;64.08;101145.22;4867024;28;97996;-67
2021/11/08 10:20:01;;;;;;;;;;;;;;;15.53;64.21;101137.81;4867157;28;127722;-66
2021/11/08 10:22:27;;;;;;;;;;;;;;;15.70;63.80;101149.09;4868211;28;116474;-67
2021/11/08 10:25:03;;;;;;;;;;;;;;;15.83;63.54;101147.63;4859653;28;98805;-66
2021/11/08 10:27:44;;;;;;;;;;;;;;;15.85;63.87;101148.16;4851261;28;98616;-66
2021/11/08 10:30:38;;;;;;;;;;;;;;;15.84;63.81;101149.28;4852678;28;98603;-66
2021/11/08 10:33:29;;;;;;;;;;;;;;;15.87;63.94;101149.47;4867982;28;98027;-66
2021/11/08 10:35:57;;;;;;;;;;;;;;;15.84;63.99;101152.78;4868092;28;98468;-66
2021/11/08 10:38:27;;;;;;;;;;;;;;;15.87;64.16;101154.09;4867936;28;99402;-67
2021/11/08 10:40:58;;;;;;;;;;;;;;;15.81;64.33;101158.00;4868616;28;97993;-66
2021/11/08 10:43:31;;;;;;;;;;;;;;;15.77;64.37;101160.47;4874550;28;97643;-67
2021/11/08 10:46:02;;;;;;;;;;;;;;;15.81;64.51;101161.50;4886690;28;97674;-67
2021/11/08 10:48:31;;;;;;;;;;;;;;;15.91;63.99;101164.13;4867492;28;100981;-66
2021/11/08 10:50:58;;;;;;;;;;;;;;;15.96;64.27;101163.28;4878411;28;98124;-67
2021/11/08 10:53:24;;;;;;;;;;;;;;;15.91;64.27;101155.16;4849762;28;97827;-66
2021/11/08 10:55:52;;;;;;;;;;;;;;;15.94;64.25;101149.16;4867364;28;98539;-67
2021/11/08 10:58:19;;;;;;;;;;;;;;;15.96;64.07;101155.13;4869405;28;98504;-67
2021/11/08 11:00:50;;;;;;;;;;;;;;;16.04;64.22;101154.50;4869136;28;97764;-66
2021/11/08 11:03:17;;;;;;;;;;;;;;;16.12;64.15;101159.31;4866198;28;110451;-66
2021/11/08 11:05:43;;;;;;;;;;;;;;;16.08;63.99;101160.19;4869425;28;98081;-66
2021/11/08 11:08:15;;;;;;;;;;;;;;;16.07;64.21;101162.09;4885065;28;98170;-67
2021/11/08 11:11:02;;;;;;;;;;;;;;;16.09;64.21;101169.94;4868013;28;97909;-66
2021/11/08 11:13:28;;;;;;;;;;;;;;;16.12;64.22;101172.09;4871477;28;98166;-66
2021/11/08 11:16:01;;;;;;;;;;;;;;;16.06;64.39;101167.81;4868066;28;98637;-66
2021/11/08 11:18:35;;;;;;;;;;;;;;;15.95;64.78;101176.06;4867890;28;98781;-66
2021/11/08 11:21:34;;;;;;;;;;;;;;;15.88;64.80;101164.72;4867045;28;97944;-66
2021/11/08 11:24:03;;;;;;;;;;;;;;;15.81;64.71;101171.56;4854057;28;98046;-67
2021/11/08 11:26:30;;;;;;;;;;;;;;;15.75;64.91;101178.94;4877123;28;98913;-59
2021/11/08 11:28:57;;;;;;;;;;;;;;;15.75;64.97;101164.56;4885025;28;98630;-66
2021/11/08 11:31:24;;;;;;;;;;;;;;;15.82;64.89;101168.56;4885310;28;98085;-59
2021/11/08 11:34:11;;;;;;;;;;;;;;;15.79;64.97;101160.16;4884128;28;97873;-66
2021/11/08 11:36:37;;;;;;;;;;;;;;;15.73;64.95;101169.47;4866509;28;113202;-59
2021/11/08 11:39:06;;;;;;;;;;;;;;;15.71;65.10;101169.75;4884108;28;98793;-58
2021/11/08 11:41:35;;;;;;;;;;;;;;;15.68;65.13;101164.91;4884798;28;98278;-59
2021/11/08 11:44:07;;;;;;;;;;;;;;;15.65;65.07;101165.47;4884723;28;98294;-67
2021/11/08 11:46:37;;;;;;;;;;;;;;;15.60;65.17;101163.56;4885149;28;98184;-66
2021/11/08 11:49:03;;;;;;;;;;;;;;;15.54;65.28;101172.84;4867536;28;98321;-59
2021/11/08 11:51:44;;;;;;;;;;;;;;;15.47;65.60;101167.72;4885299;28;98088;-67
2021/11/08 11:54:10;;;;;;;;;;;;;;;15.45;65.53;101169.13;4885170;28;98057;-58
2021/11/08 11:56:37;;;;;;;;;;;;;;;15.45;65.49;101163.69;4885180;28;98512;-59
2021/11/08 11:59:04;;;;;;;;;;;;;;;15.43;65.26;101169.38;4883442;28;122325;-59
2021/11/08 12:01:30;;;;;;;;;;;;;;;15.38;65.55;101174.06;4884098;28;113325;-58
2021/11/08 12:03:56;;;;;;;;;;;;;;;15.32;65.76;101172.44;4883826;28;99467;-66
2021/11/08 12:06:31;;;;;;;;;;;;;;;15.30;65.68;101163.78;4866420;28;128501;-66
2021/11/08 12:08:59;;;;;;;;;;;;;;;15.29;65.36;101164.84;4867222;28;98178;-61
2021/11/08 12:11:42;;;;;;;;;;;;;;;15.34;65.60;101170.28;4866540;28;97948;-59
2021/11/08 12:14:22;;;;;;;;;;;;;;;15.40;65.18;101163.69;4884226;28;97854;-58
2021/11/08 12:16:50;;;;;;;;;;;;;;;15.44;65.04;101165.59;4884754;28;98637;-67
2021/11/08 12:19:19;;;;;;;;;;;;;;;15.58;65.02;101171.19;4885852;28;99127;-66
2021/11/08 12:21:45;;;;;;;;;;;;;;;15.66;64.89;101175.22;4884921;28;97820;-66
2021/11/08 12:24:18;;;;;;;;;;;;;;;15.60;64.68;101179.03;4884631;28;97750;-59
2021/11/08 12:26:44;;;;;;;;;;;;;;;15.54;65.11;101181.00;4884162;28;98495;-67
2021/11/08 12:29:13;;;;;;;;;;;;;;;15.50;65.22;101182.66;4884532;28;98788;-58
2021/11/08 12:31:39;;;;;;;;;;;;;;;15.46;65.35;101178.88;4884055;28;98378;-59
2021/11/08 12:34:16;;;;;;;;;;;;;;;15.40;65.33;101171.84;4883586;28;97868;-59
2021/11/08 12:36:52;;;;;;;;;;;;;;;15.32;65.44;101173.25;4883631;28;97793;-59
2021/11/08 12:39:18;;;;;;;;;;;;;;;15.25;65.61;101175.50;4883353;28;123032;-58
2021/11/08 12:41:47;;;;;;;;;;;;;;;15.18;65.76;101170.38;4884021;28;114298;-67
2021/11/08 12:44:15;;;;;;;;;;;;;;;15.13;66.07;101172.28;4884604;28;97566;-66
2021/11/08 12:46:45;;;;;;;;;;;;;;;15.07;66.03;101176.16;4868992;28;98966;-66
2021/11/08 12:49:32;;;;;;;;;;;;;;;15.00;66.12;101171.00;4885989;28;126056;-58
2021/11/08 12:51:59;;;;;;;;;;;;;;;14.98;65.86;101171.31;4887364;28;97937;-66
2021/11/08 12:54:27;;;;;;;;;;;;;;;15.00;65.81;101172.91;4887302;28;98551;-66
2021/11/08 12:56:53;;;;;;;;;;;;;;;15.03;65.97;101165.03;4887553;28;98941;-59
2021/11/08 12:59:21;;;;;;;;;;;;;;;15.08;65.79;101172.31;4887131;28;99023;-58
2021/11/08 13:02:08;;;;;;;;;;;;;;;15.07;65.62;101168.81;4886055;28;98049;-59
2021/11/08 13:04:46;;;;;;;;;;;;;;;15.10;65.53;101172.88;4871103;28;98062;-66
2021/11/08 13:07:13;;;;;;;;;;;;;;;15.15;65.47;101161.97;4885895;28;123334;-67
2021/11/08 13:09:45;;;;;;;;;;;;;;;15.20;65.68;101170.06;4886137;28;98515;-59
2021/11/08 13:12:32;;;;;;;;;;;;;;;15.20;65.58;101168.16;4886137;28;98057;-58
2021/11/08 13:15:11;;;;;;;;;;;;;;;15.22;65.63;101167.91;4887472;28;97921;-67
2021/11/08 13:17:52;;;;;;;;;;;;;;;15.21;65.48;101169.81;4886222;28;108975;-59
2021/11/08 13:20:20;;;;;;;;;;;;;;;15.19;65.59;101163.03;4885668;28;99025;-67
2021/11/08 13:22:48;;;;;;;;;;;;;;;15.19;65.66;101166.56;4885162;28;119660;-66
2021/11/08 13:25:24;;;;;;;;;;;;;;;15.17;65.55;101167.94;4887583;28;97831;-67
2021/11/08 13:27:53;;;;;;;;;;;;;;;15.10;66.02;101168.25;4886899;28;98515;-67
2021/11/08 13:30:29;;;;;;;;;;;;;;;15.04;65.84;101171.25;4868411;28;99184;-67
2021/11/08 13:32:55;;;;;;;;;;;;;;;14.97;65.93;101171.56;4877784;28;119884;-67
2021/11/08 13:35:25;;;;;;;;;;;;;;;14.90;66.10;101182.75;4885239;28;117242;-66
2021/11/08 13:38:04;;;;;;;;;;;;;;;14.84;65.95;101189.28;4886858;28;98374;-67
2021/11/08 13:40:30;;;;;;;;;;;;;;;14.78;66.29;101184.16;4868643;28;98410;-67
2021/11/08 13:43:22;;;;;;;;;;;;;;;14.73;65.99;101184.97;4849492;28;125529;-66
2021/11/08 13:45:56;;;;;;;;;;;;;;;14.68;66.29;101176.88;4878310;28;98264;-66
2021/11/08 13:48:25;;;;;;;;;;;;;;;14.63;66.18;101185.03;4885674;28;98067;-66
2021/11/08 13:50:51;;;;;;;;;;;;;;;14.59;66.52;101182.06;4886269;28;98355;-66
2021/11/08 13:53:25;;;;;;;;;;;;;;;14.56;66.56;101182.59;4888076;28;99205;-67
2021/11/08 13:55:53;;;;;;;;;;;;;;;14.54;66.40;101192.94;4873225;28;97923;-66
2021/11/08 13:58:19;;;;;;;;;;;;;;;14.51;66.61;101188.06;4847208;28;120849;-67
2021/11/08 14:00:45;;;;;;;;;;;;;;;14.47;66.23;101185.03;4852276;28;98603;-67
2021/11/08 14:03:15;;;;;;;;;;;;;;;14.44;66.34;101192.91;4830970;28;122602;-64
2021/11/08 14:05:51;;;;;;;;;;;;;;;14.43;66.37;101194.03;4849743;28;97856;-66
2021/11/08 14:08:22;;;;;;;;;;;;;;;14.39;66.34;101201.09;4872272;28;99051;-66
2021/11/08 14:10:55;;;;;;;;;;;;;;;14.37;66.71;101201.34;4886822;28;98460;-65
2021/11/08 14:13:37;;;;;;;;;;;;;;;14.34;66.52;101204.59;4868822;28;98144;-67
2021/11/08 14:16:08;;;;;;;;;;;;;;;14.31;66.32;101207.88;4876509;28;98039;-66
2021/11/08 14:18:34;;;;;;;;;;;;;;;14.28;66.38;101205.72;4867813;28;97740;-67
2021/11/08 14:21:11;;;;;;;;;;;;;;;14.26;66.57;101213.28;4867009;28;126471;-66
2021/11/08 14:23:37;;;;;;;;;;;;;;;14.22;66.51;101213.03;4866893;28;98994;-58